sensor_id;sensor_type;location;lat;lon;timestamp;P1;durP1;ratioP1;P2;durP2;ratioP2
40827;SDS011;26549;50.918;5.338;2022-07-22T00:01:52;9.35;;;2.78;;
40827;SDS011;26549;50.918;5.338;2022-07-22T00:04:17;11.88;;;3.60;;
40827;SDS011;26549;50.918;5.338;2022-07-22T00:06:43;10.88;;;2.88;;
40827;SDS011;26549;50.918;5.338;2022-07-22T00:09:10;7.10;;;2.97;;
40827;SDS011;26549;50.918;5.338;2022-07-22T00:11:36;9.63;;;2.97;;
40827;SDS011;26549;50.918;5.338;2022-07-22T00:14:01;10.45;;;3.13;;
40827;SDS011;26549;50.918;5.338;2022-07-22T00:16:27;9.95;;;2.95;;
40827;SDS011;26549;50.918;5.338;2022-07-22T00:18:53;8.23;;;3.50;;
40827;SDS011;26549;50.918;5.338;2022-07-22T00:21:19;7.85;;;3.53;;
40827;SDS011;26549;50.918;5.338;2022-07-22T00:23:44;13.52;;;4.32;;
40827;SDS011;26549;50.918;5.338;2022-07-22T00:26:10;10.02;;;4.18;;
40827;SDS011;26549;50.918;5.338;2022-07-22T00:28:36;10.73;;;2.83;;
40827;SDS011;26549;50.918;5.338;2022-07-22T00:31:02;13.10;;;3.45;;
40827;SDS011;26549;50.918;5.338;2022-07-22T00:33:28;12.15;;;3.50;;
40827;SDS011;26549;50.918;5.338;2022-07-22T00:35:53;9.30;;;3.55;;
40827;SDS011;26549;50.918;5.338;2022-07-22T00:38:19;7.38;;;3.20;;
40827;SDS011;26549;50.918;5.338;2022-07-22T00:40:45;13.98;;;3.63;;
40827;SDS011;26549;50.918;5.338;2022-07-22T00:43:10;10.73;;;3.75;;
40827;SDS011;26549;50.918;5.338;2022-07-22T00:45:37;5.00;;;2.90;;
40827;SDS011;26549;50.918;5.338;2022-07-22T00:48:03;8.63;;;3.10;;
40827;SDS011;26549;50.918;5.338;2022-07-22T00:50:29;9.77;;;3.40;;
40827;SDS011;26549;50.918;5.338;2022-07-22T00:52:55;6.20;;;2.38;;
40827;SDS011;26549;50.918;5.338;2022-07-22T00:55:21;12.05;;;4.88;;
40827;SDS011;26549;50.918;5.338;2022-07-22T00:57:47;9.43;;;3.03;;
40827;SDS011;26549;50.918;5.338;2022-07-22T01:00:15;11.95;;;3.72;;
40827;SDS011;26549;50.918;5.338;2022-07-22T01:02:44;12.38;;;3.75;;
40827;SDS011;26549;50.918;5.338;2022-07-22T01:05:10;8.68;;;2.67;;
40827;SDS011;26549;50.918;5.338;2022-07-22T01:07:36;9.30;;;2.88;;
40827;SDS011;26549;50.918;5.338;2022-07-22T01:10:03;8.18;;;3.47;;
40827;SDS011;26549;50.918;5.338;2022-07-22T01:12:30;8.15;;;2.78;;
40827;SDS011;26549;50.918;5.338;2022-07-22T01:14:55;7.05;;;2.75;;
40827;SDS011;26549;50.918;5.338;2022-07-22T01:17:21;11.25;;;3.03;;
40827;SDS011;26549;50.918;5.338;2022-07-22T01:19:47;8.48;;;3.33;;
40827;SDS011;26549;50.918;5.338;2022-07-22T01:22:13;4.50;;;2.05;;
40827;SDS011;26549;50.918;5.338;2022-07-22T01:24:38;10.65;;;3.17;;
40827;SDS011;26549;50.918;5.338;2022-07-22T01:27:04;9.85;;;2.25;;
40827;SDS011;26549;50.918;5.338;2022-07-22T01:29:30;10.93;;;2.90;;
40827;SDS011;26549;50.918;5.338;2022-07-22T01:31:56;7.68;;;3.38;;
40827;SDS011;26549;50.918;5.338;2022-07-22T01:34:21;11.07;;;2.80;;
40827;SDS011;26549;50.918;5.338;2022-07-22T01:36:47;12.82;;;2.80;;
40827;SDS011;26549;50.918;5.338;2022-07-22T01:39:13;7.53;;;2.42;;
40827;SDS011;26549;50.918;5.338;2022-07-22T01:41:39;6.97;;;2.38;;
40827;SDS011;26549;50.918;5.338;2022-07-22T01:44:05;9.95;;;3.15;;
40827;SDS011;26549;50.918;5.338;2022-07-22T01:46:31;8.73;;;2.70;;
40827;SDS011;26549;50.918;5.338;2022-07-22T01:48:56;9.25;;;2.63;;
40827;SDS011;26549;50.918;5.338;2022-07-22T01:51:22;5.80;;;2.53;;
40827;SDS011;26549;50.918;5.338;2022-07-22T01:53:48;8.48;;;3.17;;
40827;SDS011;26549;50.918;5.338;2022-07-22T01:56:14;11.27;;;4.95;;
40827;SDS011;26549;50.918;5.338;2022-07-22T01:58:40;10.27;;;2.72;;
40827;SDS011;26549;50.918;5.338;2022-07-22T02:01:06;8.95;;;2.90;;
40827;SDS011;26549;50.918;5.338;2022-07-22T02:03:32;11.70;;;4.15;;
40827;SDS011;26549;50.918;5.338;2022-07-22T02:05:58;10.60;;;3.75;;
40827;SDS011;26549;50.918;5.338;2022-07-22T02:08:24;5.65;;;2.50;;
40827;SDS011;26549;50.918;5.338;2022-07-22T02:10:50;7.05;;;2.88;;
40827;SDS011;26549;50.918;5.338;2022-07-22T02:13:16;6.10;;;2.60;;
40827;SDS011;26549;50.918;5.338;2022-07-22T02:15:41;10.00;;;3.05;;
40827;SDS011;26549;50.918;5.338;2022-07-22T02:18:12;14.10;;;2.75;;
40827;SDS011;26549;50.918;5.338;2022-07-22T02:20:39;5.10;;;2.30;;
40827;SDS011;26549;50.918;5.338;2022-07-22T02:23:05;9.07;;;2.75;;
40827;SDS011;26549;50.918;5.338;2022-07-22T02:25:31;6.40;;;3.13;;
40827;SDS011;26549;50.918;5.338;2022-07-22T02:27:57;5.03;;;2.47;;
40827;SDS011;26549;50.918;5.338;2022-07-22T02:30:23;10.35;;;2.92;;
40827;SDS011;26549;50.918;5.338;2022-07-22T02:32:49;8.57;;;3.25;;
40827;SDS011;26549;50.918;5.338;2022-07-22T02:35:15;7.90;;;2.80;;
40827;SDS011;26549;50.918;5.338;2022-07-22T02:37:40;13.45;;;4.13;;
40827;SDS011;26549;50.918;5.338;2022-07-22T02:40:06;7.35;;;2.55;;
40827;SDS011;26549;50.918;5.338;2022-07-22T02:42:33;8.13;;;3.60;;
40827;SDS011;26549;50.918;5.338;2022-07-22T02:44:59;9.85;;;2.65;;
40827;SDS011;26549;50.918;5.338;2022-07-22T02:47:25;10.52;;;2.60;;
40827;SDS011;26549;50.918;5.338;2022-07-22T02:49:51;11.70;;;3.83;;
40827;SDS011;26549;50.918;5.338;2022-07-22T02:52:17;7.60;;;2.78;;
40827;SDS011;26549;50.918;5.338;2022-07-22T02:54:43;9.80;;;3.25;;
40827;SDS011;26549;50.918;5.338;2022-07-22T02:57:08;7.18;;;2.78;;
40827;SDS011;26549;50.918;5.338;2022-07-22T02:59:34;5.70;;;3.17;;
40827;SDS011;26549;50.918;5.338;2022-07-22T03:02:00;6.53;;;3.33;;
40827;SDS011;26549;50.918;5.338;2022-07-22T03:04:26;9.20;;;3.63;;
40827;SDS011;26549;50.918;5.338;2022-07-22T03:06:52;7.35;;;3.00;;
40827;SDS011;26549;50.918;5.338;2022-07-22T03:09:17;7.45;;;2.97;;
40827;SDS011;26549;50.918;5.338;2022-07-22T03:11:44;8.32;;;3.42;;
40827;SDS011;26549;50.918;5.338;2022-07-22T03:14:10;9.18;;;3.47;;
40827;SDS011;26549;50.918;5.338;2022-07-22T03:16:38;8.45;;;2.80;;
40827;SDS011;26549;50.918;5.338;2022-07-22T03:19:03;9.20;;;4.63;;
40827;SDS011;26549;50.918;5.338;2022-07-22T03:21:29;9.30;;;3.15;;
40827;SDS011;26549;50.918;5.338;2022-07-22T03:23:57;6.13;;;3.55;;
40827;SDS011;26549;50.918;5.338;2022-07-22T03:26:23;15.15;;;3.45;;
40827;SDS011;26549;50.918;5.338;2022-07-22T03:28:49;9.90;;;3.30;;
40827;SDS011;26549;50.918;5.338;2022-07-22T03:31:16;7.60;;;3.10;;
40827;SDS011;26549;50.918;5.338;2022-07-22T03:33:41;8.10;;;3.72;;
40827;SDS011;26549;50.918;5.338;2022-07-22T03:36:07;7.05;;;3.63;;
40827;SDS011;26549;50.918;5.338;2022-07-22T03:38:33;10.60;;;3.55;;
40827;SDS011;26549;50.918;5.338;2022-07-22T03:40:59;7.00;;;2.88;;
40827;SDS011;26549;50.918;5.338;2022-07-22T03:43:26;9.52;;;3.83;;
40827;SDS011;26549;50.918;5.338;2022-07-22T03:45:51;8.25;;;3.83;;
40827;SDS011;26549;50.918;5.338;2022-07-22T03:48:17;8.95;;;3.75;;
40827;SDS011;26549;50.918;5.338;2022-07-22T03:50:43;5.95;;;3.90;;
40827;SDS011;26549;50.918;5.338;2022-07-22T03:53:09;8.68;;;3.85;;
40827;SDS011;26549;50.918;5.338;2022-07-22T03:55:35;17.70;;;4.90;;
40827;SDS011;26549;50.918;5.338;2022-07-22T03:58:00;6.82;;;3.17;;
40827;SDS011;26549;50.918;5.338;2022-07-22T04:00:26;5.43;;;2.70;;
40827;SDS011;26549;50.918;5.338;2022-07-22T04:02:52;6.88;;;3.08;;
40827;SDS011;26549;50.918;5.338;2022-07-22T04:05:17;7.15;;;4.65;;
40827;SDS011;26549;50.918;5.338;2022-07-22T04:07:43;8.02;;;3.42;;
40827;SDS011;26549;50.918;5.338;2022-07-22T04:10:09;7.93;;;2.63;;
40827;SDS011;26549;50.918;5.338;2022-07-22T04:12:38;6.32;;;2.90;;
40827;SDS011;26549;50.918;5.338;2022-07-22T04:15:05;4.07;;;2.65;;
40827;SDS011;26549;50.918;5.338;2022-07-22T04:17:32;6.78;;;3.20;;
40827;SDS011;26549;50.918;5.338;2022-07-22T04:20:00;10.90;;;5.05;;
40827;SDS011;26549;50.918;5.338;2022-07-22T04:22:26;7.65;;;3.33;;
40827;SDS011;26549;50.918;5.338;2022-07-22T04:24:52;7.25;;;3.05;;
40827;SDS011;26549;50.918;5.338;2022-07-22T04:27:18;9.70;;;4.15;;
40827;SDS011;26549;50.918;5.338;2022-07-22T04:29:44;7.45;;;2.92;;
40827;SDS011;26549;50.918;5.338;2022-07-22T04:32:10;3.38;;;2.42;;
40827;SDS011;26549;50.918;5.338;2022-07-22T04:34:35;7.22;;;3.10;;
40827;SDS011;26549;50.918;5.338;2022-07-22T04:37:01;5.75;;;3.33;;
40827;SDS011;26549;50.918;5.338;2022-07-22T04:39:27;7.85;;;2.95;;
40827;SDS011;26549;50.918;5.338;2022-07-22T04:41:52;14.95;;;4.20;;
40827;SDS011;26549;50.918;5.338;2022-07-22T04:44:18;8.15;;;3.40;;
40827;SDS011;26549;50.918;5.338;2022-07-22T04:46:44;5.15;;;3.63;;
40827;SDS011;26549;50.918;5.338;2022-07-22T04:49:09;5.40;;;3.13;;
40827;SDS011;26549;50.918;5.338;2022-07-22T04:51:35;8.55;;;2.90;;
40827;SDS011;26549;50.918;5.338;2022-07-22T04:54:01;5.82;;;3.53;;
40827;SDS011;26549;50.918;5.338;2022-07-22T04:56:27;8.15;;;4.00;;
40827;SDS011;26549;50.918;5.338;2022-07-22T04:58:52;10.85;;;3.65;;
40827;SDS011;26549;50.918;5.338;2022-07-22T05:01:18;7.95;;;3.13;;
40827;SDS011;26549;50.918;5.338;2022-07-22T05:03:44;7.90;;;3.22;;
40827;SDS011;26549;50.918;5.338;2022-07-22T05:06:10;7.38;;;3.78;;
40827;SDS011;26549;50.918;5.338;2022-07-22T05:08:35;7.00;;;3.67;;
40827;SDS011;26549;50.918;5.338;2022-07-22T05:11:01;9.02;;;3.70;;
40827;SDS011;26549;50.918;5.338;2022-07-22T05:13:27;7.25;;;3.53;;
40827;SDS011;26549;50.918;5.338;2022-07-22T05:15:53;6.60;;;3.85;;
40827;SDS011;26549;50.918;5.338;2022-07-22T05:18:19;9.25;;;3.97;;
40827;SDS011;26549;50.918;5.338;2022-07-22T05:20:44;10.40;;;3.97;;
40827;SDS011;26549;50.918;5.338;2022-07-22T05:23:10;6.28;;;3.78;;
40827;SDS011;26549;50.918;5.338;2022-07-22T05:25:36;8.68;;;3.58;;
40827;SDS011;26549;50.918;5.338;2022-07-22T05:28:02;7.45;;;3.83;;
40827;SDS011;26549;50.918;5.338;2022-07-22T05:30:28;7.95;;;3.70;;
40827;SDS011;26549;50.918;5.338;2022-07-22T05:32:54;10.48;;;4.25;;
40827;SDS011;26549;50.918;5.338;2022-07-22T05:35:20;5.28;;;2.75;;
40827;SDS011;26549;50.918;5.338;2022-07-22T05:37:46;9.32;;;3.22;;
40827;SDS011;26549;50.918;5.338;2022-07-22T05:40:12;6.43;;;3.85;;
40827;SDS011;26549;50.918;5.338;2022-07-22T05:42:38;5.22;;;2.55;;
40827;SDS011;26549;50.918;5.338;2022-07-22T05:45:04;5.60;;;2.70;;
40827;SDS011;26549;50.918;5.338;2022-07-22T05:47:30;5.47;;;2.45;;
40827;SDS011;26549;50.918;5.338;2022-07-22T05:49:56;4.38;;;2.72;;
40827;SDS011;26549;50.918;5.338;2022-07-22T05:52:22;3.97;;;2.10;;
40827;SDS011;26549;50.918;5.338;2022-07-22T05:54:47;5.43;;;2.42;;
40827;SDS011;26549;50.918;5.338;2022-07-22T05:57:13;3.35;;;1.77;;
40827;SDS011;26549;50.918;5.338;2022-07-22T05:59:39;4.57;;;1.80;;
40827;SDS011;26549;50.918;5.338;2022-07-22T06:02:06;5.43;;;2.58;;
40827;SDS011;26549;50.918;5.338;2022-07-22T06:04:32;2.92;;;1.45;;
40827;SDS011;26549;50.918;5.338;2022-07-22T06:06:58;5.90;;;2.05;;
40827;SDS011;26549;50.918;5.338;2022-07-22T06:09:24;3.08;;;1.52;;
40827;SDS011;26549;50.918;5.338;2022-07-22T06:11:50;6.10;;;1.83;;
40827;SDS011;26549;50.918;5.338;2022-07-22T06:14:15;3.10;;;1.63;;
40827;SDS011;26549;50.918;5.338;2022-07-22T06:16:41;3.05;;;1.30;;
40827;SDS011;26549;50.918;5.338;2022-07-22T06:19:07;1.92;;;1.42;;
40827;SDS011;26549;50.918;5.338;2022-07-22T06:21:33;3.97;;;1.67;;
40827;SDS011;26549;50.918;5.338;2022-07-22T06:23:58;4.10;;;1.90;;
40827;SDS011;26549;50.918;5.338;2022-07-22T06:26:24;3.25;;;2.05;;
40827;SDS011;26549;50.918;5.338;2022-07-22T06:28:50;2.75;;;1.30;;
40827;SDS011;26549;50.918;5.338;2022-07-22T06:31:15;3.95;;;1.05;;
40827;SDS011;26549;50.918;5.338;2022-07-22T06:33:41;2.33;;;1.33;;
40827;SDS011;26549;50.918;5.338;2022-07-22T06:36:07;1.65;;;1.20;;
40827;SDS011;26549;50.918;5.338;2022-07-22T06:38:33;4.53;;;1.75;;
40827;SDS011;26549;50.918;5.338;2022-07-22T06:40:59;4.47;;;1.42;;
40827;SDS011;26549;50.918;5.338;2022-07-22T06:43:26;3.78;;;1.40;;
40827;SDS011;26549;50.918;5.338;2022-07-22T06:45:52;1.92;;;1.20;;
40827;SDS011;26549;50.918;5.338;2022-07-22T06:48:18;3.88;;;1.20;;
40827;SDS011;26549;50.918;5.338;2022-07-22T06:50:44;1.73;;;1.38;;
40827;SDS011;26549;50.918;5.338;2022-07-22T06:53:09;3.78;;;1.55;;
40827;SDS011;26549;50.918;5.338;2022-07-22T06:55:35;3.72;;;1.75;;
40827;SDS011;26549;50.918;5.338;2022-07-22T06:58:01;4.55;;;1.35;;
40827;SDS011;26549;50.918;5.338;2022-07-22T07:00:27;1.80;;;1.45;;
40827;SDS011;26549;50.918;5.338;2022-07-22T07:02:52;3.47;;;1.42;;
40827;SDS011;26549;50.918;5.338;2022-07-22T07:05:18;2.38;;;1.45;;
40827;SDS011;26549;50.918;5.338;2022-07-22T07:07:44;3.15;;;1.10;;
40827;SDS011;26549;50.918;5.338;2022-07-22T07:10:10;4.75;;;1.15;;
40827;SDS011;26549;50.918;5.338;2022-07-22T07:12:37;4.32;;;1.48;;
40827;SDS011;26549;50.918;5.338;2022-07-22T07:15:03;3.50;;;1.38;;
40827;SDS011;26549;50.918;5.338;2022-07-22T07:17:30;5.13;;;1.30;;
40827;SDS011;26549;50.918;5.338;2022-07-22T07:19:56;2.83;;;1.35;;
40827;SDS011;26549;50.918;5.338;2022-07-22T07:22:22;5.10;;;1.88;;
40827;SDS011;26549;50.918;5.338;2022-07-22T07:24:47;1.90;;;1.17;;
40827;SDS011;26549;50.918;5.338;2022-07-22T07:27:13;2.15;;;1.48;;
40827;SDS011;26549;50.918;5.338;2022-07-22T07:29:39;2.42;;;1.80;;
40827;SDS011;26549;50.918;5.338;2022-07-22T07:32:04;4.55;;;1.75;;
40827;SDS011;26549;50.918;5.338;2022-07-22T07:34:30;2.92;;;1.58;;
40827;SDS011;26549;50.918;5.338;2022-07-22T07:36:56;1.83;;;1.10;;
40827;SDS011;26549;50.918;5.338;2022-07-22T07:39:23;3.72;;;1.50;;
40827;SDS011;26549;50.918;5.338;2022-07-22T07:41:48;4.82;;;0.88;;
40827;SDS011;26549;50.918;5.338;2022-07-22T07:44:15;2.58;;;1.20;;
40827;SDS011;26549;50.918;5.338;2022-07-22T07:46:41;3.92;;;2.17;;
40827;SDS011;26549;50.918;5.338;2022-07-22T07:49:07;2.78;;;1.15;;
40827;SDS011;26549;50.918;5.338;2022-07-22T07:51:33;3.60;;;1.38;;
40827;SDS011;26549;50.918;5.338;2022-07-22T07:53:59;3.15;;;1.50;;
40827;SDS011;26549;50.918;5.338;2022-07-22T07:56:25;2.20;;;1.98;;
40827;SDS011;26549;50.918;5.338;2022-07-22T07:58:50;2.50;;;1.17;;
40827;SDS011;26549;50.918;5.338;2022-07-22T08:01:16;3.22;;;0.95;;
40827;SDS011;26549;50.918;5.338;2022-07-22T08:03:42;2.83;;;1.13;;
40827;SDS011;26549;50.918;5.338;2022-07-22T08:06:09;2.67;;;1.30;;
40827;SDS011;26549;50.918;5.338;2022-07-22T08:08:35;1.17;;;0.80;;
40827;SDS011;26549;50.918;5.338;2022-07-22T08:11:01;2.83;;;0.93;;
40827;SDS011;26549;50.918;5.338;2022-07-22T08:13:27;2.03;;;1.48;;
40827;SDS011;26549;50.918;5.338;2022-07-22T08:15:53;2.10;;;0.73;;
40827;SDS011;26549;50.918;5.338;2022-07-22T08:18:18;3.83;;;1.10;;
40827;SDS011;26549;50.918;5.338;2022-07-22T08:20:44;6.20;;;1.40;;
40827;SDS011;26549;50.918;5.338;2022-07-22T08:23:10;2.03;;;0.80;;
40827;SDS011;26549;50.918;5.338;2022-07-22T08:25:36;3.35;;;1.63;;
40827;SDS011;26549;50.918;5.338;2022-07-22T08:28:01;2.15;;;1.13;;
40827;SDS011;26549;50.918;5.338;2022-07-22T08:30:28;1.70;;;1.00;;
40827;SDS011;26549;50.918;5.338;2022-07-22T08:32:53;3.35;;;1.23;;
40827;SDS011;26549;50.918;5.338;2022-07-22T08:35:19;3.00;;;1.08;;
40827;SDS011;26549;50.918;5.338;2022-07-22T08:37:45;4.65;;;2.20;;
40827;SDS011;26549;50.918;5.338;2022-07-22T08:40:13;3.95;;;1.20;;
40827;SDS011;26549;50.918;5.338;2022-07-22T08:42:40;1.95;;;1.17;;
40827;SDS011;26549;50.918;5.338;2022-07-22T08:45:07;3.28;;;1.00;;
40827;SDS011;26549;50.918;5.338;2022-07-22T08:47:33;3.83;;;1.15;;
40827;SDS011;26549;50.918;5.338;2022-07-22T08:49:59;5.60;;;1.20;;
40827;SDS011;26549;50.918;5.338;2022-07-22T08:52:25;4.45;;;1.45;;
40827;SDS011;26549;50.918;5.338;2022-07-22T08:54:51;1.92;;;1.15;;
40827;SDS011;26549;50.918;5.338;2022-07-22T08:57:17;9.88;;;2.95;;
40827;SDS011;26549;50.918;5.338;2022-07-22T09:02:19;2.55;;;1.42;;
40827;SDS011;26549;50.918;5.338;2022-07-22T09:04:59;3.22;;;0.95;;
40827;SDS011;26549;50.918;5.338;2022-07-22T09:07:28;1.65;;;1.05;;
40827;SDS011;26549;50.918;5.338;2022-07-22T09:09:56;2.20;;;1.23;;
40827;SDS011;26549;50.918;5.338;2022-07-22T09:12:24;3.00;;;1.30;;
40827;SDS011;26549;50.918;5.338;2022-07-22T09:14:53;2.97;;;1.20;;
40827;SDS011;26549;50.918;5.338;2022-07-22T09:19:54;3.58;;;1.13;;
40827;SDS011;26549;50.918;5.338;2022-07-22T09:22:39;5.03;;;1.30;;
40827;SDS011;26549;50.918;5.338;2022-07-22T09:25:23;7.68;;;2.40;;
40827;SDS011;26549;50.918;5.338;2022-07-22T09:27:56;3.33;;;1.30;;
40827;SDS011;26549;50.918;5.338;2022-07-22T09:30:39;4.10;;;1.33;;
40827;SDS011;26549;50.918;5.338;2022-07-22T09:33:05;3.85;;;1.42;;
40827;SDS011;26549;50.918;5.338;2022-07-22T09:35:32;2.72;;;1.23;;
40827;SDS011;26549;50.918;5.338;2022-07-22T09:37:59;3.90;;;1.40;;
40827;SDS011;26549;50.918;5.338;2022-07-22T09:40:34;9.23;;;1.67;;
40827;SDS011;26549;50.918;5.338;2022-07-22T09:43:05;4.85;;;1.10;;
40827;SDS011;26549;50.918;5.338;2022-07-22T09:45:47;2.85;;;1.40;;
40827;SDS011;26549;50.918;5.338;2022-07-22T09:48:24;2.65;;;0.98;;
40827;SDS011;26549;50.918;5.338;2022-07-22T09:50:51;4.97;;;1.10;;
40827;SDS011;26549;50.918;5.338;2022-07-22T09:53:20;2.33;;;1.33;;
40827;SDS011;26549;50.918;5.338;2022-07-22T09:55:48;2.20;;;1.40;;
40827;SDS011;26549;50.918;5.338;2022-07-22T09:58:14;5.97;;;1.92;;
40827;SDS011;26549;50.918;5.338;2022-07-22T10:00:41;3.38;;;1.73;;
40827;SDS011;26549;50.918;5.338;2022-07-22T10:03:08;3.63;;;1.27;;
40827;SDS011;26549;50.918;5.338;2022-07-22T10:05:38;4.47;;;1.55;;
40827;SDS011;26549;50.918;5.338;2022-07-22T10:08:06;2.88;;;1.20;;
40827;SDS011;26549;50.918;5.338;2022-07-22T10:10:33;5.03;;;1.60;;
40827;SDS011;26549;50.918;5.338;2022-07-22T10:13:02;5.90;;;1.65;;
40827;SDS011;26549;50.918;5.338;2022-07-22T10:15:29;3.83;;;1.30;;
40827;SDS011;26549;50.918;5.338;2022-07-22T10:17:57;3.42;;;1.25;;
40827;SDS011;26549;50.918;5.338;2022-07-22T10:20:31;2.72;;;1.33;;
40827;SDS011;26549;50.918;5.338;2022-07-22T10:23:02;5.70;;;1.55;;
40827;SDS011;26549;50.918;5.338;2022-07-22T10:25:30;4.07;;;1.60;;
40827;SDS011;26549;50.918;5.338;2022-07-22T10:30:25;4.13;;;2.15;;
40827;SDS011;26549;50.918;5.338;2022-07-22T10:33:07;6.00;;;2.22;;
40827;SDS011;26549;50.918;5.338;2022-07-22T10:35:35;3.28;;;1.52;;
40827;SDS011;26549;50.918;5.338;2022-07-22T10:38:03;6.63;;;1.33;;
40827;SDS011;26549;50.918;5.338;2022-07-22T10:40:47;5.80;;;1.95;;
40827;SDS011;26549;50.918;5.338;2022-07-22T10:43:31;2.63;;;1.52;;
40827;SDS011;26549;50.918;5.338;2022-07-22T10:46:06;2.88;;;1.30;;
40827;SDS011;26549;50.918;5.338;2022-07-22T10:59:07;4.35;;;2.38;;
40827;SDS011;26549;50.918;5.338;2022-07-22T11:01:41;4.30;;;2.08;;
40827;SDS011;26549;50.918;5.338;2022-07-22T11:06:43;2.40;;;1.50;;
40827;SDS011;26549;50.918;5.338;2022-07-22T11:09:11;2.50;;;1.25;;
40827;SDS011;26549;50.918;5.338;2022-07-22T11:11:42;5.30;;;1.50;;
40827;SDS011;26549;50.918;5.338;2022-07-22T11:14:27;4.18;;;1.38;;
40827;SDS011;26549;50.918;5.338;2022-07-22T11:19:38;3.90;;;1.77;;
40827;SDS011;26549;50.918;5.338;2022-07-22T11:22:06;7.20;;;1.42;;
40827;SDS011;26549;50.918;5.338;2022-07-22T11:24:37;4.90;;;2.08;;
40827;SDS011;26549;50.918;5.338;2022-07-22T11:27:04;3.25;;;1.40;;
40827;SDS011;26549;50.918;5.338;2022-07-22T11:29:38;5.07;;;1.57;;
40827;SDS011;26549;50.918;5.338;2022-07-22T11:32:10;5.28;;;1.58;;
40827;SDS011;26549;50.918;5.338;2022-07-22T11:34:38;4.95;;;1.80;;
40827;SDS011;26549;50.918;5.338;2022-07-22T11:37:07;3.85;;;2.38;;
40827;SDS011;26549;50.918;5.338;2022-07-22T11:39:33;3.38;;;2.20;;
40827;SDS011;26549;50.918;5.338;2022-07-22T11:42:00;2.17;;;1.55;;
40827;SDS011;26549;50.918;5.338;2022-07-22T11:44:27;4.97;;;1.60;;
40827;SDS011;26549;50.918;5.338;2022-07-22T11:46:54;3.53;;;1.77;;
40827;SDS011;26549;50.918;5.338;2022-07-22T11:49:24;5.20;;;1.50;;
40827;SDS011;26549;50.918;5.338;2022-07-22T11:51:51;3.92;;;1.48;;
40827;SDS011;26549;50.918;5.338;2022-07-22T11:54:17;5.82;;;2.03;;
40827;SDS011;26549;50.918;5.338;2022-07-22T11:56:43;3.60;;;1.35;;
40827;SDS011;26549;50.918;5.338;2022-07-22T11:59:11;2.25;;;1.55;;
40827;SDS011;26549;50.918;5.338;2022-07-22T12:01:38;3.55;;;1.80;;
40827;SDS011;26549;50.918;5.338;2022-07-22T12:04:09;3.92;;;1.77;;
40827;SDS011;26549;50.918;5.338;2022-07-22T12:06:37;4.15;;;1.85;;
40827;SDS011;26549;50.918;5.338;2022-07-22T12:11:45;3.10;;;1.45;;
40827;SDS011;26549;50.918;5.338;2022-07-22T12:14:14;5.80;;;1.60;;
40827;SDS011;26549;50.918;5.338;2022-07-22T12:16:42;3.95;;;1.55;;
40827;SDS011;26549;50.918;5.338;2022-07-22T12:19:19;4.43;;;1.90;;
40827;SDS011;26549;50.918;5.338;2022-07-22T12:24:38;3.35;;;1.30;;
40827;SDS011;26549;50.918;5.338;2022-07-22T12:27:06;3.33;;;1.40;;
40827;SDS011;26549;50.918;5.338;2022-07-22T12:32:03;4.85;;;1.27;;
40827;SDS011;26549;50.918;5.338;2022-07-22T12:34:40;4.05;;;1.50;;
40827;SDS011;26549;50.918;5.338;2022-07-22T12:37:11;5.60;;;1.60;;
40827;SDS011;26549;50.918;5.338;2022-07-22T12:47:56;5.07;;;1.98;;
40827;SDS011;26549;50.918;5.338;2022-07-22T12:53:06;6.85;;;1.38;;
40827;SDS011;26549;50.918;5.338;2022-07-22T12:55:43;3.15;;;1.67;;
40827;SDS011;26549;50.918;5.338;2022-07-22T12:58:17;3.17;;;1.42;;
40827;SDS011;26549;50.918;5.338;2022-07-22T13:00:50;4.15;;;1.60;;
40827;SDS011;26549;50.918;5.338;2022-07-22T13:03:17;4.95;;;1.30;;
40827;SDS011;26549;50.918;5.338;2022-07-22T13:05:44;2.95;;;1.30;;
40827;SDS011;26549;50.918;5.338;2022-07-22T13:08:15;2.33;;;1.38;;
40827;SDS011;26549;50.918;5.338;2022-07-22T13:10:41;3.33;;;1.30;;
40827;SDS011;26549;50.918;5.338;2022-07-22T13:13:07;2.22;;;1.13;;
40827;SDS011;26549;50.918;5.338;2022-07-22T13:15:33;9.35;;;1.60;;
40827;SDS011;26549;50.918;5.338;2022-07-22T13:17:59;3.45;;;1.85;;
40827;SDS011;26549;50.918;5.338;2022-07-22T13:20:25;2.17;;;1.48;;
40827;SDS011;26549;50.918;5.338;2022-07-22T13:22:51;5.50;;;1.40;;
40827;SDS011;26549;50.918;5.338;2022-07-22T13:25:17;2.25;;;1.98;;
40827;SDS011;26549;50.918;5.338;2022-07-22T13:27:42;5.70;;;1.48;;
40827;SDS011;26549;50.918;5.338;2022-07-22T13:30:08;2.65;;;1.55;;
40827;SDS011;26549;50.918;5.338;2022-07-22T13:32:34;4.55;;;1.60;;
40827;SDS011;26549;50.918;5.338;2022-07-22T13:35:00;4.78;;;1.77;;
40827;SDS011;26549;50.918;5.338;2022-07-22T13:37:27;3.67;;;1.25;;
40827;SDS011;26549;50.918;5.338;2022-07-22T13:39:53;2.30;;;1.48;;
40827;SDS011;26549;50.918;5.338;2022-07-22T13:42:19;2.42;;;1.42;;
40827;SDS011;26549;50.918;5.338;2022-07-22T13:44:45;3.05;;;1.77;;
40827;SDS011;26549;50.918;5.338;2022-07-22T13:47:11;2.95;;;1.20;;
40827;SDS011;26549;50.918;5.338;2022-07-22T13:49:37;4.10;;;1.90;;
40827;SDS011;26549;50.918;5.338;2022-07-22T13:52:03;4.10;;;1.27;;
40827;SDS011;26549;50.918;5.338;2022-07-22T13:54:29;5.60;;;1.50;;
40827;SDS011;26549;50.918;5.338;2022-07-22T13:56:55;5.70;;;1.60;;
40827;SDS011;26549;50.918;5.338;2022-07-22T13:59:22;3.15;;;1.80;;
40827;SDS011;26549;50.918;5.338;2022-07-22T14:01:48;5.07;;;1.65;;
40827;SDS011;26549;50.918;5.338;2022-07-22T14:04:14;5.05;;;2.20;;
40827;SDS011;26549;50.918;5.338;2022-07-22T14:06:40;4.38;;;1.65;;
40827;SDS011;26549;50.918;5.338;2022-07-22T14:09:06;3.45;;;1.60;;
40827;SDS011;26549;50.918;5.338;2022-07-22T14:11:31;2.70;;;1.30;;
40827;SDS011;26549;50.918;5.338;2022-07-22T14:13:57;4.35;;;1.95;;
40827;SDS011;26549;50.918;5.338;2022-07-22T14:16:23;10.43;;;1.70;;
40827;SDS011;26549;50.918;5.338;2022-07-22T14:21:27;3.65;;;1.70;;
40827;SDS011;26549;50.918;5.338;2022-07-22T14:23:52;3.72;;;1.60;;
40827;SDS011;26549;50.918;5.338;2022-07-22T14:26:18;2.97;;;2.00;;
40827;SDS011;26549;50.918;5.338;2022-07-22T14:28:44;2.80;;;1.90;;
40827;SDS011;26549;50.918;5.338;2022-07-22T14:31:09;3.03;;;1.88;;
40827;SDS011;26549;50.918;5.338;2022-07-22T14:33:35;13.73;;;2.92;;
40827;SDS011;26549;50.918;5.338;2022-07-22T14:36:01;4.25;;;1.77;;
40827;SDS011;26549;50.918;5.338;2022-07-22T14:38:26;6.25;;;2.25;;
40827;SDS011;26549;50.918;5.338;2022-07-22T14:40:52;2.42;;;1.30;;
40827;SDS011;26549;50.918;5.338;2022-07-22T14:43:18;4.95;;;1.60;;
40827;SDS011;26549;50.918;5.338;2022-07-22T14:45:43;4.65;;;2.28;;
40827;SDS011;26549;50.918;5.338;2022-07-22T14:48:09;2.83;;;1.85;;
40827;SDS011;26549;50.918;5.338;2022-07-22T14:50:35;5.45;;;1.67;;
40827;SDS011;26549;50.918;5.338;2022-07-22T14:53:01;3.63;;;1.88;;
40827;SDS011;26549;50.918;5.338;2022-07-22T14:55:27;4.50;;;1.90;;
40827;SDS011;26549;50.918;5.338;2022-07-22T14:57:53;6.20;;;2.55;;
40827;SDS011;26549;50.918;5.338;2022-07-22T15:00:18;4.38;;;1.88;;
40827;SDS011;26549;50.918;5.338;2022-07-22T15:02:45;2.88;;;1.50;;
40827;SDS011;26549;50.918;5.338;2022-07-22T15:05:10;4.68;;;2.05;;
40827;SDS011;26549;50.918;5.338;2022-07-22T15:07:36;4.03;;;2.03;;
40827;SDS011;26549;50.918;5.338;2022-07-22T15:10:02;4.18;;;1.83;;
40827;SDS011;26549;50.918;5.338;2022-07-22T15:12:28;4.38;;;1.58;;
40827;SDS011;26549;50.918;5.338;2022-07-22T15:14:54;5.53;;;1.83;;
40827;SDS011;26549;50.918;5.338;2022-07-22T15:17:19;4.43;;;1.50;;
40827;SDS011;26549;50.918;5.338;2022-07-22T15:19:45;6.38;;;2.63;;
40827;SDS011;26549;50.918;5.338;2022-07-22T15:22:11;3.33;;;1.73;;
40827;SDS011;26549;50.918;5.338;2022-07-22T15:24:36;2.35;;;1.70;;
40827;SDS011;26549;50.918;5.338;2022-07-22T15:27:02;4.68;;;1.50;;
40827;SDS011;26549;50.918;5.338;2022-07-22T15:29:28;4.75;;;1.85;;